Cerkezmusellim, Turkey
Current Conditions -  °F | °C
As of 1:50 AM on Monday 24 Nov 2014 (Local Time) from LTBU Reporting Station
Broken Clouds Broken Clouds  
Wind Chill: 36°   Ceiling: 9000
Heat Index: 43°   Visibility: 6mi
Dew Point: 39°   Wind: 14mph
Humidity: 87%   Direction: 10°N
Pressure: 30.3"   Gusts: NA
Location:  41.28°N, 27.03°E
Report Text: LTBU 232350Z 01012KT 9999 SCT025 BKN090 06/04 Q1026
Loading
Personal Weather Stations






























Interactive Weather Map New forecast layout! Learn more

10-Day Weather Forecast

Advertisements
Track Severe Weather on mobile